Time;durP1;ratioP1;P1;durP2;ratioP2;P2;SDS_P1;SDS_P2;PMS_P1;PMS_P2;Temp;Humidity;BMP_temperature;BMP_pressure;BME280_temperature;BME280_humidity;BME280_pressure;Samples;Min_cycle;Max_cycle;Signal;HPM_P1;HPM_P2
2022/01/02 00:01:26;;;;;;;97.90;27.10;;;3.80;99.90;;;;;;4977451;28;90167;-76
2022/01/02 00:03:53;;;;;;;125.63;30.98;;;3.90;99.90;;;;;;4977302;28;89320;-76
2022/01/02 00:06:24;;;;;;;88.30;27.65;;;4.00;99.90;;;;;;4977126;28;89338;-76
2022/01/02 00:08:56;;;;;;;90.25;29.00;;;4.10;99.90;;;;;;4977261;28;89337;-76
2022/01/02 00:11:24;;;;;;;69.53;25.90;;;4.10;99.90;;;;;;4977856;28;89084;-76
2022/01/02 00:13:54;;;;;;;59.97;25.17;;;4.10;99.90;;;;;;4977079;28;89271;-76
2022/01/02 00:16:21;;;;;;;75.05;29.67;;;4.20;99.90;;;;;;4976350;28;91068;-76
2022/01/02 00:19:02;;;;;;;76.45;29.02;;;4.20;99.90;;;;;;4974984;28;93986;-76
2022/01/02 00:21:29;;;;;;;92.18;32.75;;;4.20;99.90;;;;;;4977043;28;90225;-76
2022/01/02 00:24:02;;;;;;;86.35;33.30;;;4.30;99.90;;;;;;4975680;28;89578;-76
2022/01/02 00:26:41;;;;;;;108.50;36.53;;;4.30;99.90;;;;;;4959291;28;92105;-77
2022/01/02 00:29:08;;;;;;;100.18;35.00;;;4.30;99.90;;;;;;4977239;28;90402;-76
2022/01/02 05:00:42;;;;;;;35.15;16.17;;;3.50;99.90;;;;;;5901113;22;90973;-75
2022/01/02 05:03:08;;;;;;;44.20;17.52;;;3.50;99.90;;;;;;5015807;28;89328;-75
2022/01/02 05:05:34;;;;;;;40.22;16.52;;;3.50;99.90;;;;;;5023273;28;89652;-75
2022/01/02 05:07:59;;;;;;;35.88;15.15;;;3.60;99.90;;;;;;5018779;28;90011;-75
2022/01/02 05:10:25;;;;;;;26.05;15.05;;;3.60;99.90;;;;;;5016599;28;89601;-75
2022/01/02 05:12:50;;;;;;;31.58;15.38;;;3.60;99.90;;;;;;4996868;28;90135;-75
2022/01/02 05:15:16;;;;;;;27.58;15.13;;;3.60;99.90;;;;;;4996602;28;90214;-75
2022/01/02 05:17:43;;;;;;;26.13;15.57;;;3.60;99.90;;;;;;4996228;28;90453;-75
2022/01/02 05:20:09;;;;;;;28.40;15.77;;;3.50;99.90;;;;;;4981430;28;91084;-75
2022/01/02 05:22:34;;;;;;;32.58;15.65;;;3.60;99.90;;;;;;4981345;28;89269;-75
2022/01/02 05:25:00;;;;;;;31.40;16.00;;;3.60;99.90;;;;;;4999465;28;90250;-75
2022/01/02 05:27:25;;;;;;;34.95;17.15;;;3.50;99.90;;;;;;4999447;28;89351;-75
2022/01/02 05:29:51;;;;;;;35.75;16.45;;;3.60;99.90;;;;;;5000009;28;88800;-75
2022/01/02 05:32:16;;;;;;;35.90;16.42;;;3.50;99.90;;;;;;4999499;28;89391;-75
2022/01/02 05:34:42;;;;;;;32.13;16.27;;;3.50;99.90;;;;;;4999310;28;89916;-75
2022/01/02 05:37:07;;;;;;;29.30;15.93;;;3.60;99.90;;;;;;4998702;28;91112;-75
2022/01/02 05:39:33;;;;;;;49.17;17.17;;;3.70;99.90;;;;;;4999232;28;89604;-76
2022/01/02 05:41:58;;;;;;;46.33;17.45;;;3.60;99.90;;;;;;4998942;28;89270;-75
2022/01/02 05:44:24;;;;;;;70.28;17.73;;;3.70;99.90;;;;;;4998977;28;90095;-75
2022/01/02 05:46:50;;;;;;;59.83;17.35;;;3.70;99.90;;;;;;4999233;28;89941;-75
2022/01/02 05:49:15;;;;;;;41.33;16.05;;;3.60;99.90;;;;;;4999108;28;89178;-75
2022/01/02 05:51:41;;;;;;;34.95;16.52;;;3.60;99.90;;;;;;4999171;28;89157;-75
2022/01/02 05:54:07;;;;;;;29.58;14.90;;;3.60;99.90;;;;;;4999204;28;89583;-75
2022/01/02 05:56:33;;;;;;;35.63;15.73;;;3.60;99.90;;;;;;4980650;28;92872;-75
2022/01/02 05:58:59;;;;;;;31.80;14.00;;;3.60;99.90;;;;;;4980848;28;92512;-75
2022/01/02 06:01:25;;;;;;;35.60;16.10;;;3.60;99.90;;;;;;4998546;28;90385;-75
2022/01/02 06:03:51;;;;;;;31.83;15.52;;;3.60;99.90;;;;;;4998724;28;90148;-76
2022/01/02 06:06:16;;;;;;;26.42;14.50;;;3.60;99.90;;;;;;4998945;28;89263;-75
2022/01/02 06:08:42;;;;;;;34.58;15.40;;;3.50;99.90;;;;;;4980688;28;91329;-75
2022/01/02 06:11:07;;;;;;;35.22;15.20;;;3.50;99.90;;;;;;4980627;28;89402;-75
2022/01/02 06:13:33;;;;;;;28.30;13.30;;;3.50;99.90;;;;;;4998415;28;90002;-75
2022/01/02 06:15:58;;;;;;;40.55;16.80;;;3.50;99.90;;;;;;4998675;28;89894;-75
2022/01/02 06:18:24;;;;;;;32.92;14.73;;;3.50;99.90;;;;;;4998862;28;90235;-75
2022/01/02 06:20:50;;;;;;;34.47;15.20;;;3.50;99.90;;;;;;4998819;28;89176;-75
2022/01/02 06:23:16;;;;;;;32.33;15.25;;;3.60;99.90;;;;;;4980387;28;91596;-75
2022/01/02 06:25:45;;;;;;;32.67;15.65;;;3.60;99.90;;;;;;4998053;28;91094;-75
2022/01/02 06:28:11;;;;;;;34.17;15.15;;;3.60;99.90;;;;;;4997998;28;90969;-75
2022/01/02 06:30:36;;;;;;;38.47;16.95;;;3.60;99.90;;;;;;4998365;28;89307;-75
2022/01/02 06:33:03;;;;;;;29.58;15.10;;;3.60;99.90;;;;;;4998363;28;89321;-75
2022/01/02 06:35:34;;;;;;;31.55;14.68;;;3.60;99.90;;;;;;4980409;28;91733;-75
2022/01/02 06:38:13;;;;;;;31.42;15.40;;;3.70;99.90;;;;;;4998411;28;89509;-75
2022/01/02 06:40:39;;;;;;;40.13;17.02;;;3.70;99.90;;;;;;4998488;28;89228;-75
2022/01/02 06:43:04;;;;;;;33.95;17.38;;;3.70;99.90;;;;;;4998382;28;89654;-75
2022/01/02 06:45:30;;;;;;;33.83;16.45;;;3.70;99.90;;;;;;4998311;28;89968;-75
2022/01/02 06:47:56;;;;;;;34.92;16.90;;;3.70;99.90;;;;;;4998333;28;89255;-75
2022/01/02 06:50:21;;;;;;;41.38;17.25;;;3.70;99.90;;;;;;4997725;28;90174;-75
2022/01/02 06:52:47;;;;;;;43.53;17.63;;;3.70;99.90;;;;;;4997878;28;89722;-75
2022/01/02 06:55:12;;;;;;;82.05;18.30;;;3.70;99.90;;;;;;4997980;28;89228;-75
2022/01/02 06:57:38;;;;;;;45.47;16.42;;;3.70;99.90;;;;;;4998246;28;89791;-75
2022/01/02 07:00:07;;;;;;;38.45;17.08;;;3.70;99.90;;;;;;4998290;28;89160;-75
2022/01/02 07:02:33;;;;;;;33.55;16.17;;;3.60;99.90;;;;;;4978971;28;91860;-75
2022/01/02 07:04:59;;;;;;;34.53;17.17;;;3.50;99.90;;;;;;4997878;28;89865;-76
2022/01/02 07:07:24;;;;;;;30.17;16.15;;;3.40;99.90;;;;;;4997958;28;89465;-75
2022/01/02 07:09:50;;;;;;;29.33;15.40;;;3.40;99.90;;;;;;4997961;28;89165;-75
2022/01/02 07:12:15;;;;;;;28.98;15.77;;;3.30;99.90;;;;;;4997333;28;89524;-75
2022/01/02 07:14:41;;;;;;;34.15;17.35;;;3.30;99.90;;;;;;4997147;28;90293;-75
2022/01/02 07:17:06;;;;;;;26.98;15.27;;;3.30;99.90;;;;;;4997757;28;89733;-75
2022/01/02 07:19:32;;;;;;;27.50;14.95;;;3.40;99.90;;;;;;4997941;28;89268;-75
2022/01/02 07:21:58;;;;;;;28.42;15.70;;;3.40;99.90;;;;;;4997349;28;89735;-75
2022/01/02 07:24:24;;;;;;;30.35;15.57;;;3.50;99.90;;;;;;4997595;28;90448;-74
2022/01/02 07:26:50;;;;;;;32.88;16.67;;;3.50;99.90;;;;;;4997885;28;89271;-75
2022/01/02 07:29:16;;;;;;;29.65;15.70;;;3.50;99.90;;;;;;4997624;28;89379;-74
2022/01/02 07:31:42;;;;;;;33.08;17.05;;;3.50;99.90;;;;;;4998007;28;89798;-75
2022/01/02 07:34:07;;;;;;;34.53;17.88;;;3.50;99.90;;;;;;4997460;28;89988;-75
2022/01/02 07:36:33;;;;;;;33.30;17.02;;;3.50;99.90;;;;;;4979063;28;92423;-75
2022/01/02 07:38:58;;;;;;;29.02;16.45;;;3.50;99.90;;;;;;4997186;28;90325;-75
2022/01/02 07:41:25;;;;;;;30.85;16.33;;;3.60;99.90;;;;;;4996449;28;90709;-75
2022/01/02 07:43:50;;;;;;;30.73;16.20;;;3.60;99.90;;;;;;4997253;28;90264;-75
2022/01/02 07:46:16;;;;;;;26.60;15.82;;;3.70;99.90;;;;;;4997261;28;89443;-75
2022/01/02 07:48:41;;;;;;;32.33;17.33;;;3.70;99.90;;;;;;4997623;28;89527;-75
2022/01/02 07:51:07;;;;;;;35.72;17.77;;;3.70;99.90;;;;;;4997078;28;90003;-75
2022/01/02 07:53:33;;;;;;;33.42;16.42;;;3.70;99.90;;;;;;4979019;28;91849;-75
2022/01/02 07:55:59;;;;;;;29.52;15.65;;;3.80;99.90;;;;;;4997504;28;90219;-76
2022/01/02 07:58:24;;;;;;;31.17;17.05;;;3.80;99.90;;;;;;4997158;28;89249;-76
2022/01/02 08:00:50;;;;;;;35.20;17.00;;;3.80;99.90;;;;;;4997117;28;89308;-74
2022/01/02 08:03:17;;;;;;;31.83;16.92;;;3.90;99.90;;;;;;4996701;28;91351;-75
2022/01/02 08:05:42;;;;;;;32.72;16.80;;;3.80;99.90;;;;;;4997950;28;91059;-74
2022/01/02 08:08:09;;;;;;;40.25;17.67;;;3.80;99.90;;;;;;5000319;28;89171;-74
2022/01/02 08:10:34;;;;;;;43.70;19.67;;;3.80;99.90;;;;;;4999108;28;89342;-75
2022/01/02 08:13:00;;;;;;;40.00;19.50;;;3.80;99.90;;;;;;4997040;28;90509;-75
2022/01/02 08:15:25;;;;;;;41.45;19.30;;;3.80;99.90;;;;;;4996838;28;89201;-75
2022/01/02 08:17:51;;;;;;;38.22;18.38;;;3.80;99.90;;;;;;4979091;28;89230;-75
2022/01/02 08:20:17;;;;;;;32.75;16.35;;;3.80;99.90;;;;;;4997067;28;88920;-75
2022/01/02 08:22:42;;;;;;;33.72;16.92;;;3.80;99.90;;;;;;4997495;28;89870;-75
2022/01/02 08:25:08;;;;;;;37.03;19.20;;;3.90;99.90;;;;;;4996924;28;89646;-75
2022/01/02 08:27:34;;;;;;;35.90;17.67;;;4.00;99.90;;;;;;4996559;28;90018;-75
2022/01/02 08:29:59;;;;;;;40.90;22.00;;;4.10;99.90;;;;;;4978837;28;91729;-75
2022/01/02 08:32:25;;;;;;;41.38;21.50;;;4.20;99.90;;;;;;4996430;28;90292;-78
2022/01/02 08:34:50;;;;;;;45.63;23.17;;;4.30;99.90;;;;;;4978539;28;92891;-74
2022/01/02 08:37:16;;;;;;;38.55;20.17;;;4.40;99.90;;;;;;4996802;28;89304;-74
2022/01/02 08:39:45;;;;;;;45.10;25.73;;;4.40;99.90;;;;;;4995890;28;89389;-74
2022/01/02 08:42:13;;;;;;;34.80;21.13;;;4.60;99.90;;;;;;4996097;28;90180;-75
2022/01/02 08:44:41;;;;;;;31.13;18.55;;;4.70;99.90;;;;;;4978831;28;92586;-75
2022/01/02 08:47:08;;;;;;;31.85;17.52;;;4.80;99.90;;;;;;4996569;28;89240;-75
2022/01/02 08:49:33;;;;;;;34.15;17.73;;;4.90;99.90;;;;;;4996227;28;89278;-77
2022/01/02 08:51:59;;;;;;;27.42;15.82;;;5.10;99.90;;;;;;4995562;28;91442;-76
2022/01/02 08:54:25;;;;;;;24.95;15.60;;;5.20;99.90;;;;;;4998885;28;91257;-76
2022/01/02 08:56:50;;;;;;;25.13;15.10;;;5.40;99.90;;;;;;5000232;28;89222;-75
2022/01/02 08:59:17;;;;;;;22.65;14.50;;;5.50;99.90;;;;;;4981842;28;91479;-75
2022/01/02 09:01:43;;;;;;;19.13;13.77;;;5.70;99.90;;;;;;4999317;28;90034;-76
2022/01/02 09:04:09;;;;;;;26.10;15.35;;;5.80;99.90;;;;;;4999200;28;89348;-75
2022/01/02 09:06:34;;;;;;;23.95;15.52;;;6.00;99.90;;;;;;4999972;28;89134;-75
2022/01/02 09:09:00;;;;;;;21.02;14.48;;;6.20;99.90;;;;;;4999824;28;89771;-76
2022/01/02 09:11:26;;;;;;;22.50;14.40;;;6.30;99.90;;;;;;4999413;28;90602;-77
2022/01/02 09:13:52;;;;;;;19.95;13.25;;;6.40;99.90;;;;;;4981197;28;92434;-74
2022/01/02 09:16:17;;;;;;;17.73;12.73;;;6.50;99.90;;;;;;4999357;28;90186;-74
2022/01/02 09:18:43;;;;;;;17.33;12.73;;;6.50;99.90;;;;;;4999481;28;89699;-76
2022/01/02 09:21:08;;;;;;;23.00;13.98;;;6.60;99.90;;;;;;4999387;28;89180;-74
2022/01/02 09:23:34;;;;;;;19.38;13.73;;;6.70;99.90;;;;;;4981278;28;91298;-74
2022/01/02 09:25:59;;;;;;;20.08;13.77;;;6.90;99.90;;;;;;4999659;28;89285;-73
2022/01/02 09:28:25;;;;;;;18.27;13.27;;;7.00;99.90;;;;;;4999301;28;89453;-73
2022/01/02 09:30:51;;;;;;;19.30;14.00;;;7.00;99.90;;;;;;4999342;28;90037;-74
2022/01/02 09:33:16;;;;;;;21.80;14.00;;;6.90;99.90;;;;;;4999142;28;88900;-73
2022/01/02 09:35:42;;;;;;;16.52;12.45;;;7.00;99.90;;;;;;4999780;28;89174;-75
2022/01/02 09:38:08;;;;;;;17.42;12.52;;;7.00;99.90;;;;;;4999315;28;89659;-75
2022/01/02 09:40:35;;;;;;;16.10;11.77;;;7.10;99.90;;;;;;4980256;28;94124;-75
2022/01/02 09:43:02;;;;;;;16.98;12.10;;;7.20;99.90;;;;;;4998306;28;91142;-74
2022/01/02 09:45:28;;;;;;;16.35;12.63;;;7.20;99.90;;;;;;4981003;28;89320;-75
2022/01/02 09:47:54;;;;;;;16.50;12.02;;;7.30;99.90;;;;;;4998823;28;89783;-76
2022/01/02 09:50:20;;;;;;;14.43;11.10;;;7.30;99.90;;;;;;4999106;28;90136;-75
2022/01/02 09:52:46;;;;;;;14.60;11.52;;;7.30;99.90;;;;;;4999034;28;89499;-75
2022/01/02 09:55:12;;;;;;;14.95;10.95;;;7.20;99.90;;;;;;4999494;28;89160;-75
2022/01/02 09:57:43;;;;;;;15.57;10.85;;;7.20;99.90;;;;;;4999423;28;89627;-76
2022/01/02 10:00:09;;;;;;;15.55;11.10;;;7.20;99.90;;;;;;4999059;28;90053;-74
2022/01/02 10:02:54;;;;;;;11.90;9.98;;;7.30;99.90;;;;;;4980239;28;92551;-74
2022/01/02 10:05:21;;;;;;;14.75;10.52;;;7.40;99.90;;;;;;4998072;28;90238;-75
2022/01/02 10:07:47;;;;;;;15.02;10.35;;;7.40;99.90;;;;;;4998968;28;89930;-75
2022/01/02 10:10:13;;;;;;;13.35;10.35;;;7.40;99.90;;;;;;4998624;28;90534;-75
2022/01/02 10:12:39;;;;;;;12.35;9.60;;;7.40;99.90;;;;;;4999922;28;90474;-75
2022/01/02 10:15:08;;;;;;;11.88;9.60;;;7.40;99.90;;;;;;4999165;28;89200;-75
2022/01/02 10:17:56;;;;;;;12.38;9.50;;;7.40;99.90;;;;;;4999945;28;90084;-77
2022/01/02 10:20:24;;;;;;;13.45;9.30;;;7.50;99.90;;;;;;4997741;28;89185;-75
2022/01/02 10:23:23;;;;;;;10.25;8.23;;;7.50;99.90;;;;;;4999671;28;89178;-75
2022/01/02 10:25:59;;;;;;;15.32;9.10;;;7.40;99.90;;;;;;4983444;28;89430;-75
2022/01/02 10:28:36;;;;;;;11.73;8.63;;;7.30;99.90;;;;;;4996178;28;90034;-75
2022/01/02 10:31:03;;;;;;;10.85;8.75;;;7.20;99.90;;;;;;4988834;28;94329;-75
2022/01/02 10:33:54;;;;;;;12.13;9.70;;;7.20;99.90;;;;;;4978312;28;89569;-75
2022/01/02 10:36:30;;;;;;;13.63;9.85;;;7.20;99.90;;;;;;4978750;28;89718;-75
2022/01/02 10:39:03;;;;;;;12.82;10.15;;;7.20;99.90;;;;;;4978611;28;89264;-75
2022/01/02 10:41:49;;;;;;;14.13;10.55;;;7.30;99.90;;;;;;4977751;28;89250;-75
2022/01/02 10:44:20;;;;;;;16.05;11.70;;;7.30;99.90;;;;;;4978049;28;89566;-75
2022/01/02 10:47:04;;;;;;;14.02;11.02;;;7.30;99.90;;;;;;4978256;28;89284;-76
2022/01/02 10:49:53;;;;;;;15.77;11.13;;;7.20;99.90;;;;;;4978689;28;89921;-75
2022/01/02 10:52:37;;;;;;;14.32;10.45;;;7.20;99.90;;;;;;4959896;28;91792;-75
2022/01/02 10:55:19;;;;;;;12.02;9.90;;;7.30;99.90;;;;;;4978104;28;90279;-75
2022/01/02 10:57:50;;;;;;;10.80;9.07;;;7.40;99.90;;;;;;4960538;28;90250;-75
2022/01/02 11:00:17;;;;;;;12.32;9.68;;;7.50;99.90;;;;;;4978774;28;89272;-75
2022/01/02 11:02:44;;;;;;;13.85;10.40;;;7.60;99.90;;;;;;4978721;28;89559;-75
2022/01/02 11:05:11;;;;;;;13.20;10.30;;;7.70;99.90;;;;;;4979726;28;92633;-74
2022/01/02 11:07:42;;;;;;;12.27;9.50;;;7.80;99.90;;;;;;4983332;28;89245;-75
2022/01/02 11:10:10;;;;;;;13.10;10.07;;;7.90;99.90;;;;;;4980023;28;89855;-75
2022/01/02 11:12:40;;;;;;;10.63;8.93;;;8.00;99.90;;;;;;4959324;28;91092;-75
2022/01/02 11:15:08;;;;;;;11.18;8.98;;;8.00;99.90;;;;;;4979773;28;89006;-75
2022/01/02 11:17:37;;;;;;;11.73;8.68;;;8.00;99.90;;;;;;4977101;28;89265;-75
2022/01/02 11:20:08;;;;;;;14.05;9.45;;;7.90;99.90;;;;;;4977605;28;89985;-75
2022/01/02 11:22:54;;;;;;;12.05;9.35;;;7.90;99.90;;;;;;4976821;28;91252;-75
2022/01/02 11:25:28;;;;;;;13.52;10.00;;;7.80;99.90;;;;;;4978474;28;89434;-75
2022/01/02 11:28:02;;;;;;;15.15;10.60;;;7.80;99.90;;;;;;4977841;28;89278;-75
2022/01/02 11:30:31;;;;;;;13.63;10.13;;;7.90;99.90;;;;;;4959264;28;90194;-75
2022/01/02 11:33:14;;;;;;;13.00;10.55;;;8.00;99.90;;;;;;4977324;28;90099;-75
2022/01/02 11:35:48;;;;;;;14.27;10.77;;;8.10;99.90;;;;;;4959774;28;89257;-75
2022/01/02 11:38:16;;;;;;;16.17;11.45;;;8.30;99.90;;;;;;4977803;28;88946;-75
2022/01/02 11:40:52;;;;;;;21.85;14.98;;;8.40;99.90;;;;;;4978069;28;90207;-75
2022/01/02 11:43:35;;;;;;;16.20;11.93;;;8.60;99.90;;;;;;4977148;28;89312;-75
2022/01/02 11:46:16;;;;;;;15.90;10.32;;;8.60;99.90;;;;;;4977316;28;89336;-75
2022/01/02 11:48:42;;;;;;;14.43;9.93;;;8.60;99.90;;;;;;4977111;28;90143;-75
2022/01/02 11:51:07;;;;;;;11.90;9.48;;;8.40;99.90;;;;;;4977972;28;89352;-75
2022/01/02 11:53:36;;;;;;;13.98;10.25;;;8.30;99.90;;;;;;4977808;28;89236;-75
2022/01/02 11:56:03;;;;;;;12.38;9.60;;;8.30;99.90;;;;;;4977248;28;90090;-75
2022/01/02 11:58:38;;;;;;;11.93;9.52;;;8.30;99.90;;;;;;4978077;28;89218;-75
2022/01/02 12:01:04;;;;;;;19.13;12.65;;;8.30;99.90;;;;;;4977615;28;89230;-75
2022/01/02 12:03:55;;;;;;;15.90;11.73;;;8.40;99.90;;;;;;4976861;28;89700;-75
2022/01/02 12:06:33;;;;;;;14.52;11.25;;;8.50;99.90;;;;;;4974310;28;89083;-75
2022/01/02 12:08:59;;;;;;;15.57;11.75;;;8.50;99.90;;;;;;4977656;28;89501;-75
2022/01/02 12:11:31;;;;;;;14.55;11.30;;;8.50;99.90;;;;;;4959130;28;91600;-75
2022/01/02 12:14:04;;;;;;;17.80;12.80;;;8.60;99.90;;;;;;4976361;28;91605;-75
2022/01/02 12:16:58;;;;;;;14.60;10.35;;;8.80;99.90;;;;;;4977095;28;90864;-75
2022/01/02 12:19:24;;;;;;;13.15;10.95;;;9.00;99.90;;;;;;4953519;28;89599;-75
2022/01/02 12:22:12;;;;;;;13.13;10.02;;;9.10;99.90;;;;;;4976856;28;89701;-75
2022/01/02 12:24:38;;;;;;;12.18;9.75;;;9.30;99.90;;;;;;4959144;28;91631;-75
2022/01/02 12:27:10;;;;;;;14.40;10.77;;;9.20;99.90;;;;;;4977982;28;89262;-75
2022/01/02 12:29:36;;;;;;;12.32;9.32;;;9.20;99.90;;;;;;4980238;28;89260;-75
2022/01/02 12:32:03;;;;;;;12.07;9.82;;;9.20;99.90;;;;;;4981154;28;88992;-74
2022/01/02 12:34:32;;;;;;;13.20;9.75;;;9.10;99.90;;;;;;4980553;28;90357;-75
2022/01/02 12:36:58;;;;;;;12.70;9.90;;;9.10;99.90;;;;;;4963168;28;92528;-75
2022/01/02 12:39:32;;;;;;;12.35;9.77;;;9.10;99.90;;;;;;4980721;28;90218;-75
2022/01/02 12:42:04;;;;;;;12.90;9.98;;;9.00;99.90;;;;;;4962780;28;89292;-75
2022/01/02 12:44:35;;;;;;;13.15;9.73;;;9.00;99.90;;;;;;4980103;28;90070;-75
2022/01/02 12:47:06;;;;;;;13.85;10.52;;;8.80;99.90;;;;;;4980856;28;89220;-75
2022/01/02 12:49:45;;;;;;;15.00;10.88;;;8.80;99.90;;;;;;4980096;28;89255;-75
2022/01/02 12:52:16;;;;;;;12.00;9.77;;;8.80;99.90;;;;;;4979694;28;89922;-75
2022/01/02 12:54:44;;;;;;;14.93;10.93;;;8.70;99.90;;;;;;4980729;28;89159;-75
2022/01/02 12:57:11;;;;;;;12.75;10.32;;;8.70;99.90;;;;;;4962803;28;91634;-75
2022/01/02 12:59:45;;;;;;;15.23;10.05;;;8.70;99.90;;;;;;4979921;28;89352;-75
2022/01/02 13:02:15;;;;;;;14.90;10.73;;;8.60;99.90;;;;;;4979621;28;89672;-75
2022/01/02 13:04:47;;;;;;;14.98;11.32;;;8.60;99.90;;;;;;4979478;28;91432;-75
2022/01/02 13:07:16;;;;;;;16.00;11.43;;;8.70;99.90;;;;;;4979750;28;89427;-75
2022/01/02 13:09:43;;;;;;;15.43;10.82;;;8.70;99.90;;;;;;4979832;28;89328;-75
2022/01/02 13:12:12;;;;;;;14.68;11.43;;;8.70;99.90;;;;;;4961203;28;92295;-75
2022/01/02 13:14:46;;;;;;;14.07;11.02;;;8.70;99.90;;;;;;4979620;28;89234;-75
2022/01/02 13:17:20;;;;;;;15.18;11.15;;;8.70;99.90;;;;;;4980019;28;90180;-75
2022/01/02 13:20:08;;;;;;;15.43;11.95;;;8.80;99.90;;;;;;4979764;28;89376;-75
2022/01/02 13:22:37;;;;;;;18.27;13.50;;;8.90;99.90;;;;;;4978785;28;90252;-75
2022/01/02 13:25:08;;;;;;;14.93;10.60;;;8.90;99.90;;;;;;4979474;28;90675;-75
2022/01/02 13:27:46;;;;;;;13.48;10.05;;;9.00;99.90;;;;;;4979451;28;89685;-75
2022/01/02 13:30:16;;;;;;;11.95;9.60;;;9.00;99.90;;;;;;4961397;28;90448;-75
2022/01/02 13:32:43;;;;;;;10.52;7.90;;;9.10;99.90;;;;;;4979861;28;89233;-75
2022/01/02 13:35:11;;;;;;;10.13;7.95;;;9.30;99.90;;;;;;4980135;28;89664;-75
2022/01/02 13:37:43;;;;;;;11.90;8.85;;;9.40;99.90;;;;;;4980034;28;89721;-75
2022/01/02 13:40:10;;;;;;;13.93;10.68;;;9.50;99.90;;;;;;4961606;28;89314;-75
2022/01/02 13:42:39;;;;;;;17.52;13.20;;;9.50;99.90;;;;;;4979298;28;90292;-75
2022/01/02 13:45:11;;;;;;;11.77;9.68;;;9.40;99.90;;;;;;4979209;28;89227;-75
2022/01/02 13:47:36;;;;;;;14.32;9.60;;;9.40;99.90;;;;;;4980193;28;89067;-75
2022/01/02 13:50:04;;;;;;;12.05;9.27;;;9.30;99.90;;;;;;4980284;28;89195;-75
2022/01/02 13:52:29;;;;;;;13.48;9.98;;;9.30;99.90;;;;;;4979077;28;90876;-75
2022/01/02 13:55:09;;;;;;;16.05;10.25;;;9.30;99.90;;;;;;4978466;28;90246;-75
2022/01/02 13:57:35;;;;;;;15.48;9.88;;;9.20;99.90;;;;;;4978919;28;90007;-75
2022/01/02 14:00:21;;;;;;;13.68;10.35;;;9.40;99.90;;;;;;4979412;28;89259;-75
2022/01/02 14:02:51;;;;;;;15.52;11.23;;;9.40;99.90;;;;;;4979059;28;90351;-75
2022/01/02 14:05:19;;;;;;;15.45;11.73;;;9.30;99.90;;;;;;4993591;28;89798;-75
2022/01/02 14:07:45;;;;;;;15.52;12.27;;;9.30;99.90;;;;;;4999535;28;89085;-75
2022/01/02 14:10:13;;;;;;;17.05;12.20;;;9.10;99.90;;;;;;4961513;28;89290;-75
2022/01/02 14:12:39;;;;;;;16.25;12.40;;;8.90;99.90;;;;;;4978957;28;90264;-75
2022/01/02 14:15:22;;;;;;;16.40;12.75;;;8.70;99.90;;;;;;4960891;28;92017;-75
2022/01/02 14:17:49;;;;;;;17.02;12.43;;;8.60;99.90;;;;;;4978701;28;90208;-75
2022/01/02 14:20:17;;;;;;;17.23;12.48;;;8.50;99.90;;;;;;4960469;28;90286;-75
2022/01/02 14:22:45;;;;;;;16.20;12.27;;;8.50;99.90;;;;;;4960496;28;92764;-75
2022/01/02 14:25:11;;;;;;;18.17;12.90;;;8.40;99.90;;;;;;4978538;28;90388;-75
2022/01/02 14:27:37;;;;;;;14.68;12.05;;;8.40;99.90;;;;;;4978627;28;89408;-75
2022/01/02 14:30:05;;;;;;;16.88;12.65;;;8.30;99.90;;;;;;4978645;28;89204;-75
2022/01/02 14:32:31;;;;;;;16.00;12.30;;;8.30;99.90;;;;;;4960278;28;91494;-75
2022/01/02 14:34:57;;;;;;;17.45;12.70;;;8.30;99.90;;;;;;4978270;28;90685;-74
2022/01/02 14:37:23;;;;;;;17.02;12.73;;;8.30;99.90;;;;;;4978743;28;89870;-75
2022/01/02 14:39:49;;;;;;;17.55;13.15;;;8.20;99.90;;;;;;4960727;28;89344;-75
2022/01/02 14:42:15;;;;;;;17.33;13.43;;;8.20;99.90;;;;;;4977727;28;89405;-75
2022/01/02 14:44:41;;;;;;;16.77;13.13;;;8.20;99.90;;;;;;4977678;28;92168;-75
2022/01/02 14:47:07;;;;;;;17.85;13.60;;;8.10;99.90;;;;;;4978464;28;89537;-75
2022/01/02 14:49:34;;;;;;;17.10;13.10;;;8.10;99.90;;;;;;4978334;28;89259;-75
2022/01/02 14:51:59;;;;;;;15.50;11.00;;;8.10;99.90;;;;;;4978133;28;89601;-75
2022/01/02 14:54:25;;;;;;;13.18;9.07;;;8.10;99.90;;;;;;4977952;28;89651;-75
2022/01/02 14:56:51;;;;;;;12.15;8.15;;;8.10;99.90;;;;;;4978993;28;89327;-75
2022/01/02 14:59:16;;;;;;;9.80;6.60;;;8.20;99.90;;;;;;4979242;28;89356;-75
2022/01/02 15:01:42;;;;;;;7.90;5.95;;;8.40;99.90;;;;;;4978790;28;88975;-75
2022/01/02 15:04:08;;;;;;;11.80;6.13;;;8.60;99.90;;;;;;4960497;28;93070;-75
2022/01/02 15:06:35;;;;;;;7.90;5.53;;;8.70;99.90;;;;;;4978448;28;90030;-75
2022/01/02 15:09:01;;;;;;;7.95;5.68;;;8.90;99.90;;;;;;4960280;28;90228;-75
2022/01/02 15:11:27;;;;;;;8.48;5.85;;;9.00;99.90;;;;;;4979068;28;89838;-75
2022/01/02 15:13:53;;;;;;;7.90;6.15;;;9.00;99.90;;;;;;4979047;28;90115;-75
2022/01/02 15:16:19;;;;;;;10.18;6.18;;;9.00;99.90;;;;;;4978548;28;89875;-75
2022/01/02 15:18:44;;;;;;;8.60;5.63;;;8.80;99.90;;;;;;4978821;28;89683;-75
2022/01/02 15:21:10;;;;;;;11.63;5.95;;;8.70;99.90;;;;;;4978585;28;89743;-75
2022/01/02 15:23:36;;;;;;;8.10;5.72;;;8.60;99.90;;;;;;4980972;28;89312;-75
2022/01/02 15:26:04;;;;;;;9.05;6.53;;;8.60;99.90;;;;;;4982096;28;89611;-75
2022/01/02 15:28:30;;;;;;;8.05;6.20;;;8.60;99.90;;;;;;4981680;28;89317;-76
2022/01/02 15:30:55;;;;;;;8.35;5.40;;;8.60;99.90;;;;;;4981405;28;89705;-75
2022/01/02 15:33:21;;;;;;;9.40;5.25;;;8.50;99.90;;;;;;4962865;28;92180;-75
2022/01/02 15:35:47;;;;;;;7.75;4.55;;;8.60;99.90;;;;;;4981007;28;91069;-76
2022/01/02 15:38:12;;;;;;;10.27;4.70;;;8.80;99.90;;;;;;4963942;28;89595;-77
2022/01/02 15:40:38;;;;;;;9.27;3.90;;;9.10;99.90;;;;;;4980309;28;89398;-75
2022/01/02 15:43:04;;;;;;;7.35;3.80;;;9.50;99.90;;;;;;4961729;28;93114;-75
2022/01/02 15:45:29;;;;;;;8.35;4.15;;;9.80;99.90;;;;;;4980922;28;89205;-75
2022/01/02 15:47:55;;;;;;;6.68;3.78;;;9.80;99.90;;;;;;4962957;28;89216;-75
2022/01/02 15:50:21;;;;;;;6.45;4.15;;;10.10;99.90;;;;;;4979455;28;89619;-75
2022/01/02 15:52:48;;;;;;;6.40;3.90;;;10.10;99.90;;;;;;4978187;28;90442;-75
2022/01/02 15:55:14;;;;;;;9.27;5.60;;;10.20;99.90;;;;;;4978052;28;89443;-75
2022/01/02 15:57:40;;;;;;;9.80;4.85;;;10.20;99.90;;;;;;4977666;28;90209;-75
2022/01/02 16:00:08;;;;;;;8.77;4.50;;;10.10;99.90;;;;;;4978028;28;89977;-75
2022/01/02 16:02:35;;;;;;;12.82;7.97;;;10.20;99.90;;;;;;4976966;28;90188;-76
2022/01/02 16:05:00;;;;;;;8.15;5.00;;;10.20;99.90;;;;;;4978794;28;89839;-75
2022/01/02 16:07:27;;;;;;;8.63;4.40;;;10.10;99.90;;;;;;4978474;28;89329;-75
2022/01/02 16:09:52;;;;;;;7.57;3.90;;;10.20;99.90;;;;;;4977990;28;89768;-75
2022/01/02 16:12:18;;;;;;;8.57;4.18;;;10.20;99.90;;;;;;4977748;28;89369;-75
2022/01/02 16:14:44;;;;;;;8.18;5.30;;;10.10;99.90;;;;;;4960666;28;92320;-75
2022/01/02 16:17:09;;;;;;;6.15;4.47;;;10.00;99.90;;;;;;4960627;28;89459;-75
2022/01/02 16:19:35;;;;;;;6.95;4.60;;;9.90;99.90;;;;;;4977858;28;89319;-76
2022/01/02 16:22:00;;;;;;;7.20;4.78;;;9.90;99.90;;;;;;4976950;28;90622;-75
2022/01/02 16:24:27;;;;;;;7.80;4.60;;;9.80;99.90;;;;;;4977873;28;90699;-75
2022/01/02 16:26:53;;;;;;;8.75;4.45;;;9.70;99.90;;;;;;4960582;28;89333;-75
2022/01/02 16:29:25;;;;;;;6.60;4.30;;;9.60;99.90;;;;;;4977923;28;89323;-75
2022/01/02 16:31:55;;;;;;;5.50;3.97;;;9.60;99.90;;;;;;4977969;28;89394;-75
2022/01/02 16:34:21;;;;;;;6.90;4.32;;;9.60;99.90;;;;;;4960065;28;91281;-75
2022/01/02 16:36:46;;;;;;;8.23;4.25;;;9.50;99.90;;;;;;4978360;28;89380;-75
2022/01/02 16:39:12;;;;;;;6.05;4.28;;;9.60;99.90;;;;;;4978400;28;88898;-75
2022/01/02 16:41:38;;;;;;;5.40;4.30;;;9.40;99.90;;;;;;4977940;28;89557;-75
2022/01/02 16:44:06;;;;;;;7.95;4.45;;;9.40;99.90;;;;;;4977760;28;89318;-75
2022/01/02 16:46:32;;;;;;;6.72;4.10;;;9.30;99.90;;;;;;4977981;28;90158;-76
2022/01/02 16:48:58;;;;;;;8.73;4.53;;;9.30;99.90;;;;;;4960283;28;92592;-75
2022/01/02 16:51:23;;;;;;;6.28;4.30;;;9.40;99.90;;;;;;4960488;28;93006;-75
2022/01/02 16:53:49;;;;;;;8.18;4.88;;;9.20;99.90;;;;;;4979673;28;89168;-75
2022/01/02 16:56:15;;;;;;;7.80;4.60;;;9.00;99.90;;;;;;4980616;28;89567;-75
2022/01/02 16:58:45;;;;;;;8.35;4.32;;;8.80;99.90;;;;;;4963236;28;91394;-75
2022/01/02 17:01:12;;;;;;;9.05;4.55;;;8.60;99.90;;;;;;4982731;28;89299;-75
2022/01/02 17:03:38;;;;;;;7.45;4.05;;;8.50;99.90;;;;;;4976240;28;91224;-75
2022/01/02 17:06:04;;;;;;;6.03;4.13;;;8.40;99.90;;;;;;4992916;28;89230;-76
2022/01/02 17:08:29;;;;;;;8.73;4.85;;;8.50;99.90;;;;;;4979707;28;89331;-75
2022/01/02 17:10:55;;;;;;;9.60;5.20;;;8.60;99.90;;;;;;4960223;28;92643;-75
2022/01/02 17:13:20;;;;;;;7.50;4.45;;;8.50;99.90;;;;;;4978765;28;90714;-76
2022/01/02 17:15:49;;;;;;;5.57;4.05;;;8.30;99.90;;;;;;4981005;28;89437;-75